Time;durP1;ratioP1;P1;durP2;ratioP2;P2;SDS_P1;SDS_P2;PMS_P1;PMS_P2;Temp;Humidity;BMP_temperature;BMP_pressure;BME280_temperature;BME280_humidity;BME280_pressure;Samples;Min_cycle;Max_cycle;Signal;HPM_P1;HPM_P2
2023/04/19 00:00:25;;;;;;;43.15;22.13;;;;;;;8.16;100.00;102534.88;5209002;28;20029;-74
2023/04/19 00:02:56;;;;;;;45.53;23.17;;;;;;;8.07;100.00;102532.84;5226510;28;20489;-74
2023/04/19 00:05:27;;;;;;;45.03;23.13;;;;;;;8.03;100.00;102530.41;5208989;28;20480;-74
2023/04/19 00:07:58;;;;;;;42.92;22.58;;;;;;;8.01;100.00;102526.13;5225935;28;20211;-74
2023/04/19 00:10:29;;;;;;;41.65;21.48;;;;;;;7.97;100.00;102527.28;5226322;28;20021;-74
2023/04/19 00:12:59;;;;;;;45.28;23.15;;;;;;;7.90;100.00;102537.56;5226191;28;20032;-74
2023/04/19 00:15:30;;;;;;;40.72;22.10;;;;;;;7.85;100.00;102523.69;5226489;28;20072;-74
2023/04/19 00:18:01;;;;;;;43.72;21.80;;;;;;;7.77;100.00;102528.69;5231116;28;20024;-74
2023/04/19 00:20:31;;;;;;;45.00;22.50;;;;;;;7.73;100.00;102528.06;5230542;28;20035;-74
2023/04/19 00:23:02;;;;;;;47.65;24.50;;;;;;;7.69;100.00;102520.38;5226675;28;20032;-74
2023/04/19 00:25:33;;;;;;;47.60;23.88;;;;;;;7.65;100.00;102521.56;5191775;28;20021;-74
2023/04/19 00:28:04;;;;;;;47.58;23.95;;;;;;;7.66;100.00;102526.78;5208445;28;20035;-74
2023/04/19 00:30:34;;;;;;;44.72;23.10;;;;;;;7.63;100.00;102516.31;5225707;28;20021;-74
2023/04/19 00:33:11;;;;;;;48.58;23.80;;;;;;;7.59;100.00;102521.97;5226290;28;20112;-74
2023/04/19 00:35:41;;;;;;;43.05;22.98;;;;;;;7.56;100.00;102524.84;5208312;28;20024;-74
2023/04/19 00:38:12;;;;;;;44.05;23.27;;;;;;;7.56;100.00;102522.19;5225943;28;20508;-74
2023/04/19 00:40:42;;;;;;;41.88;22.77;;;;;;;7.56;100.00;102527.53;5225463;28;20104;-74
2023/04/19 00:43:31;;;;;;;46.97;23.50;;;;;;;7.57;100.00;102521.22;5225344;28;20400;-74
2023/04/19 00:46:02;;;;;;;47.42;25.08;;;;;;;7.62;100.00;102519.06;5225518;28;20032;-74
2023/04/19 00:48:35;;;;;;;48.58;24.45;;;;;;;7.67;100.00;102520.47;5225284;28;20021;-74
2023/04/19 00:51:05;;;;;;;46.92;23.05;;;;;;;7.74;100.00;102528.94;5225563;28;20013;-74
2023/04/19 00:53:37;;;;;;;52.88;25.27;;;;;;;7.83;100.00;102524.72;5225624;28;20025;-75
2023/04/19 00:56:09;;;;;;;49.63;24.42;;;;;;;7.84;100.00;102521.97;5225509;28;20589;-74
2023/04/19 00:58:40;;;;;;;45.80;23.77;;;;;;;7.83;100.00;102520.28;5225786;28;20086;-74
2023/04/19 01:01:11;;;;;;;48.28;24.90;;;;;;;7.82;100.00;102512.34;5207962;28;20033;-74
2023/04/19 01:03:41;;;;;;;49.60;24.35;;;;;;;7.81;100.00;102513.31;5208697;28;20029;-74
2023/04/19 01:06:13;;;;;;;47.28;23.70;;;;;;;7.84;100.00;102513.13;5207915;28;20422;-74
2023/04/19 01:08:46;;;;;;;45.80;23.58;;;;;;;7.88;100.00;102512.78;5207177;28;20013;-74
2023/04/19 01:11:30;;;;;;;47.22;23.88;;;;;;;7.94;100.00;102515.03;5213158;28;20039;-74
2023/04/19 01:14:04;;;;;;;51.40;24.08;;;;;;;8.03;100.00;102511.69;5225601;28;20442;-74
2023/04/19 01:16:35;;;;;;;50.10;24.58;;;;;;;8.12;100.00;102512.00;5190725;28;20123;-74
2023/04/19 01:19:15;;;;;;;49.63;25.42;;;;;;;8.18;100.00;102514.22;5225696;28;20044;-74
2023/04/19 01:21:57;;;;;;;51.67;24.10;;;;;;;8.28;100.00;102515.25;5225456;28;20552;-74
2023/04/19 01:24:27;;;;;;;44.25;23.70;;;;;;;8.34;100.00;102517.53;5225661;28;20021;-74
2023/04/19 01:26:58;;;;;;;45.95;22.67;;;;;;;8.43;100.00;102510.66;5225094;28;20080;-74
2023/04/19 01:29:28;;;;;;;41.42;22.90;;;;;;;8.47;100.00;102513.00;5227327;28;20025;-74
2023/04/19 01:31:59;;;;;;;42.90;23.35;;;;;;;8.48;100.00;102504.03;5228998;28;20028;-74
2023/04/19 01:34:29;;;;;;;54.85;25.70;;;;;;;8.54;100.00;102516.09;5227023;28;20033;-74
2023/04/19 01:37:00;;;;;;;41.45;22.70;;;;;;;8.58;100.00;102506.84;5225473;28;20412;-74
2023/04/19 01:39:30;;;;;;;43.65;22.48;;;;;;;8.63;100.00;102509.19;5224807;28;20033;-74
2023/04/19 01:42:01;;;;;;;46.55;23.17;;;;;;;8.69;100.00;102503.41;5204406;28;20029;-74
2023/04/19 01:44:32;;;;;;;45.00;23.15;;;;;;;8.69;100.00;102504.28;5207451;28;20036;-73
2023/04/19 01:47:05;;;;;;;43.78;22.35;;;;;;;8.72;100.00;102493.31;5207739;28;20021;-74
2023/04/19 01:49:36;;;;;;;41.53;22.77;;;;;;;8.74;100.00;102498.59;5224566;28;20385;-74
2023/04/19 01:52:06;;;;;;;42.15;22.25;;;;;;;8.76;100.00;102502.84;5224663;28;20025;-74
2023/04/19 01:54:37;;;;;;;49.67;23.83;;;;;;;8.80;100.00;102496.28;5224752;28;20651;-74
2023/04/19 01:57:07;;;;;;;44.08;23.10;;;;;;;8.82;100.00;102494.34;5224606;28;20025;-74
2023/04/19 01:59:38;;;;;;;45.42;23.60;;;;;;;8.85;100.00;102497.78;5224504;28;20036;-74
2023/04/19 02:02:08;;;;;;;43.70;23.75;;;;;;;8.87;100.00;102490.47;5224602;28;20619;-74
2023/04/19 02:04:39;;;;;;;41.97;23.13;;;;;;;8.91;100.00;102497.31;5224528;28;20027;-74
2023/04/19 02:07:10;;;;;;;42.47;23.17;;;;;;;8.92;100.00;102483.78;5224370;28;20027;-74
2023/04/19 02:09:40;;;;;;;42.33;22.88;;;;;;;8.91;100.00;102484.78;5224178;28;20029;-74
2023/04/19 02:12:11;;;;;;;45.08;22.83;;;;;;;8.92;100.00;102488.31;5224232;28;20470;-74
2023/04/19 02:14:47;;;;;;;40.70;22.48;;;;;;;8.92;100.00;102478.44;5224249;28;20044;-74
2023/04/19 02:17:18;;;;;;;40.28;22.35;;;;;;;8.95;100.00;102475.56;5224055;28;20481;-74
2023/04/19 02:19:48;;;;;;;42.72;22.77;;;;;;;8.96;100.00;102476.41;5224325;28;20067;-74
2023/04/19 02:22:21;;;;;;;45.58;23.80;;;;;;;8.96;100.00;102479.94;5224065;28;20037;-74
2023/04/19 02:24:52;;;;;;;42.40;22.85;;;;;;;9.00;100.00;102475.22;5206393;28;20043;-74
2023/04/19 02:27:23;;;;;;;42.25;22.35;;;;;;;9.06;100.00;102477.41;5205763;28;20067;-74
2023/04/19 02:29:53;;;;;;;40.38;22.55;;;;;;;9.13;100.00;102475.97;5224120;28;20028;-74
2023/04/19 02:32:24;;;;;;;37.40;21.58;;;;;;;9.14;100.00;102466.13;5224084;28;20028;-74
2023/04/19 02:34:54;;;;;;;41.88;23.33;;;;;;;9.14;100.00;102464.31;5224006;28;20027;-73
2023/04/19 02:37:25;;;;;;;42.58;23.52;;;;;;;9.16;100.00;102466.84;5223347;28;20051;-74
2023/04/19 02:39:55;;;;;;;42.67;21.85;;;;;;;9.19;100.00;102466.63;5223379;28;20040;-74
2023/04/19 02:42:26;;;;;;;38.05;21.33;;;;;;;9.23;100.00;102468.06;5224495;28;20075;-74
2023/04/19 02:44:56;;;;;;;39.22;21.55;;;;;;;9.29;100.00;102475.66;5206333;28;20020;-74
2023/04/19 02:47:27;;;;;;;42.15;21.70;;;;;;;9.30;100.00;102464.81;5223689;28;20120;-74
2023/04/19 02:50:00;;;;;;;44.80;21.95;;;;;;;9.31;100.00;102465.66;5223551;28;20024;-74
2023/04/19 02:52:31;;;;;;;38.17;21.17;;;;;;;9.33;100.00;102477.97;5223796;28;20031;-74
2023/04/19 02:55:01;;;;;;;39.28;21.55;;;;;;;9.34;100.00;102468.13;5206025;28;20029;-74
2023/04/19 02:57:32;;;;;;;40.03;21.10;;;;;;;9.38;100.00;102464.22;5223663;28;20031;-74
2023/04/19 03:00:04;;;;;;;41.22;21.17;;;;;;;9.43;100.00;102463.84;5205889;28;20024;-74
2023/04/19 03:02:35;;;;;;;38.83;20.63;;;;;;;9.48;100.00;102467.03;5223535;28;20520;-74
2023/04/19 03:05:06;;;;;;;37.38;21.17;;;;;;;9.50;100.00;102460.59;5223725;28;20107;-74
2023/04/19 03:07:37;;;;;;;38.80;21.42;;;;;;;9.50;100.00;102457.91;5223577;28;20463;-74
2023/04/19 03:10:08;;;;;;;38.33;21.52;;;;;;;9.52;100.00;102464.00;5223414;28;20031;-74
2023/04/19 03:12:38;;;;;;;38.08;20.35;;;;;;;9.52;100.00;102460.47;5205950;28;20390;-74
2023/04/19 03:15:09;;;;;;;39.40;20.70;;;;;;;9.52;100.00;102460.47;5223259;28;20079;-74
2023/04/19 03:17:39;;;;;;;36.28;21.00;;;;;;;9.51;100.00;102462.28;5225631;28;20029;-74
2023/04/19 03:20:10;;;;;;;38.60;21.55;;;;;;;9.51;100.00;102464.97;5231487;28;20393;-74
2023/04/19 03:22:41;;;;;;;38.03;21.30;;;;;;;9.51;100.00;102456.94;5189597;28;20147;-74
2023/04/19 03:25:12;;;;;;;39.90;20.63;;;;;;;9.53;100.00;102460.34;5223401;28;20019;-74
2023/04/19 03:27:44;;;;;;;39.33;20.80;;;;;;;9.52;100.00;102455.97;5223233;28;20029;-74
2023/04/19 03:30:14;;;;;;;41.47;21.58;;;;;;;9.51;100.00;102458.75;5205555;28;20055;-74
2023/04/19 03:32:46;;;;;;;42.10;20.90;;;;;;;9.54;100.00;102453.19;5224873;28;20078;-74
2023/04/19 03:35:17;;;;;;;41.85;22.60;;;;;;;9.52;100.00;102450.59;5227182;28;20024;-74
2023/04/19 03:37:47;;;;;;;45.20;21.17;;;;;;;9.50;100.00;102447.19;5227130;28;20032;-74
2023/04/19 03:40:18;;;;;;;48.85;23.48;;;;;;;9.50;100.00;102449.88;5226278;28;20031;-74
2023/04/19 03:42:48;;;;;;;44.15;22.48;;;;;;;9.50;100.00;102446.34;5227362;28;20025;-74
2023/04/19 03:45:19;;;;;;;44.55;20.85;;;;;;;9.50;100.00;102444.53;5226933;28;20079;-74
2023/04/19 03:47:49;;;;;;;45.20;22.63;;;;;;;9.53;100.00;102443.41;5209335;28;20017;-74
2023/04/19 03:50:20;;;;;;;39.15;21.13;;;;;;;9.52;100.00;102439.03;5226785;28;20117;-74
2023/04/19 03:52:50;;;;;;;41.08;21.52;;;;;;;9.54;100.00;102442.47;5226664;28;20528;-74
2023/04/19 03:55:21;;;;;;;40.83;21.08;;;;;;;9.56;100.00;102429.78;5227375;28;20460;-74
2023/04/19 03:57:51;;;;;;;42.90;21.95;;;;;;;9.55;100.00;102436.13;5226456;28;20048;-74
2023/04/19 04:00:22;;;;;;;43.58;20.92;;;;;;;9.51;100.00;102440.00;5209068;28;20036;-74
2023/04/19 04:02:52;;;;;;;43.60;23.52;;;;;;;9.42;100.00;102441.56;5208973;28;20435;-74
2023/04/19 04:05:25;;;;;;;48.13;23.42;;;;;;;9.29;100.00;102441.69;5209128;28;20028;-74
2023/04/19 04:07:56;;;;;;;47.78;23.80;;;;;;;9.21;100.00;102444.09;5226424;28;20021;-74
2023/04/19 04:10:27;;;;;;;44.65;22.50;;;;;;;9.15;100.00;102444.59;5226610;28;20055;-74
2023/04/19 04:12:57;;;;;;;47.42;23.45;;;;;;;9.08;100.00;102452.22;5226687;28;20029;-74
2023/04/19 04:15:27;;;;;;;46.22;23.20;;;;;;;8.99;100.00;102455.63;5226440;28;20661;-74
2023/04/19 04:17:58;;;;;;;47.88;23.85;;;;;;;8.93;100.00;102447.19;5226563;28;20503;-74
2023/04/19 04:20:29;;;;;;;43.08;23.02;;;;;;;8.86;100.00;102454.81;5208921;28;20021;-74
2023/04/19 04:22:59;;;;;;;47.42;24.20;;;;;;;8.78;100.00;102465.25;5208767;28;20092;-74
2023/04/19 04:25:31;;;;;;;52.70;24.30;;;;;;;8.74;100.00;102463.78;5226790;28;20025;-74
2023/04/19 04:28:03;;;;;;;51.13;25.27;;;;;;;8.69;100.00;102465.97;5207881;28;20448;-74
2023/04/19 04:30:33;;;;;;;52.53;25.33;;;;;;;8.70;100.00;102471.19;5226353;28;20028;-74
2023/04/19 04:33:04;;;;;;;52.80;25.55;;;;;;;8.68;100.00;102469.56;5226256;28;20499;-74
2023/04/19 04:35:34;;;;;;;52.53;25.40;;;;;;;8.64;100.00;102476.16;5226262;28;20028;-74
2023/04/19 04:38:06;;;;;;;49.05;24.95;;;;;;;8.57;100.00;102484.59;5191803;28;20555;-74
2023/04/19 04:40:36;;;;;;;57.58;24.67;;;;;;;8.55;100.00;102475.84;5222837;28;20477;-74
2023/04/19 04:43:07;;;;;;;47.90;24.10;;;;;;;8.55;100.00;102481.22;5227468;28;20028;-74
2023/04/19 04:45:37;;;;;;;59.28;26.50;;;;;;;8.55;100.00;102481.22;5226713;28;20028;-74
2023/04/19 04:48:08;;;;;;;50.60;26.88;;;;;;;8.50;100.00;102478.00;5225929;28;20473;-74
2023/04/19 04:50:38;;;;;;;52.17;25.70;;;;;;;8.49;100.00;102480.81;5225925;28;20060;-74
2023/04/19 04:53:11;;;;;;;54.00;25.83;;;;;;;8.45;100.00;102485.53;5225553;28;20024;-74
2023/04/19 04:55:41;;;;;;;53.38;25.67;;;;;;;8.40;100.00;102484.16;5226089;28;20492;-74
2023/04/19 04:58:11;;;;;;;50.47;25.05;;;;;;;8.37;100.00;102482.53;5225733;28;20021;-74
2023/04/19 05:00:42;;;;;;;56.50;26.85;;;;;;;8.31;100.00;102483.81;5225681;28;20025;-74
2023/04/19 05:03:12;;;;;;;46.42;24.58;;;;;;;8.39;100.00;102488.66;5225654;28;20021;-74
2023/04/19 05:05:43;;;;;;;49.58;26.73;;;;;;;8.41;100.00;102486.72;5225378;28;20021;-74
2023/04/19 05:08:13;;;;;;;47.95;24.63;;;;;;;8.44;100.00;102491.84;5207865;28;20031;-74
2023/04/19 05:10:44;;;;;;;50.17;26.13;;;;;;;8.51;100.00;102486.88;5225303;28;20100;-74
2023/04/19 05:13:15;;;;;;;49.17;24.17;;;;;;;8.50;100.00;102491.38;5225670;28;20366;-74
2023/04/19 05:15:45;;;;;;;51.63;26.15;;;;;;;8.47;100.00;102494.28;5207572;28;20021;-74
2023/04/19 05:18:15;;;;;;;49.63;24.80;;;;;;;8.53;100.00;102492.97;5232281;28;20028;-74
2023/04/19 05:20:46;;;;;;;49.65;25.17;;;;;;;8.64;100.00;102495.72;5227633;28;20039;-74
2023/04/19 05:23:17;;;;;;;48.08;24.35;;;;;;;8.78;100.00;102492.84;5226062;28;20120;-74
2023/04/19 05:25:47;;;;;;;50.83;24.75;;;;;;;8.89;100.00;102489.41;5225105;28;20071;-74
2023/04/19 05:28:18;;;;;;;48.72;24.13;;;;;;;9.00;100.00;102492.13;5224735;28;20358;-74
2023/04/19 05:30:49;;;;;;;44.05;23.40;;;;;;;9.12;100.00;102490.31;5207750;28;20389;-74
2023/04/19 05:33:19;;;;;;;43.67;23.25;;;;;;;9.21;100.00;102488.78;5225026;28;20029;-74
2023/04/19 05:35:50;;;;;;;47.63;24.35;;;;;;;9.28;100.00;102488.16;5225285;28;20075;-74
2023/04/19 05:38:20;;;;;;;46.17;24.23;;;;;;;9.33;100.00;102491.34;5206854;28;20459;-74
2023/04/19 05:40:50;;;;;;;47.00;22.90;;;;;;;9.40;100.00;102489.06;5224717;28;20059;-74
2023/04/19 05:43:21;;;;;;;43.85;23.00;;;;;;;9.44;100.00;102492.34;5224737;28;20496;-74
2023/04/19 05:45:51;;;;;;;45.40;22.73;;;;;;;9.51;100.00;102489.09;5224997;28;20108;-74
2023/04/19 05:48:22;;;;;;;44.33;23.65;;;;;;;9.58;100.00;102486.78;5224401;28;20057;-74
2023/04/19 05:50:55;;;;;;;45.10;21.45;;;;;;;9.66;100.00;102489.72;5224939;28;20063;-74
2023/04/19 05:53:28;;;;;;;47.78;22.88;;;;;;;9.70;100.00;102488.50;5224567;28;20107;-74
2023/04/19 05:55:58;;;;;;;40.40;21.00;;;;;;;9.74;100.00;102489.09;5227192;28;20021;-74
2023/04/19 05:58:29;;;;;;;44.90;21.75;;;;;;;9.77;100.00;102487.03;5207698;28;20389;-74
2023/04/19 06:01:01;;;;;;;41.67;21.52;;;;;;;9.80;100.00;102486.81;5207501;28;20060;-74
2023/04/19 06:03:33;;;;;;;48.63;23.45;;;;;;;9.89;100.00;102492.41;5207528;28;20033;-74
2023/04/19 06:06:03;;;;;;;40.42;21.45;;;;;;;9.90;100.00;102496.81;5224447;28;20028;-74
2023/04/19 06:08:34;;;;;;;39.78;20.25;;;;;;;9.94;100.00;102490.19;5224769;28;20036;-74
2023/04/19 06:11:05;;;;;;;35.15;20.05;;;;;;;10.00;100.00;102485.22;5190389;28;20147;-74
2023/04/19 06:13:35;;;;;;;34.95;19.38;;;;;;;10.04;100.00;102492.06;5224850;28;20405;-74
2023/04/19 06:16:07;;;;;;;38.13;20.23;;;;;;;10.12;100.00;102494.94;5206988;28;20017;-74
2023/04/19 06:18:37;;;;;;;38.97;19.75;;;;;;;10.16;100.00;102492.88;5234702;28;20032;-74
2023/04/19 06:21:08;;;;;;;36.28;19.98;;;;;;;10.20;100.00;102485.47;5224452;28;20075;-74
2023/04/19 06:23:39;;;;;;;37.47;19.95;;;;;;;10.28;100.00;102491.06;5206795;28;20531;-74
2023/04/19 06:26:09;;;;;;;34.28;19.23;;;;;;;10.33;100.00;102489.72;5224338;28;20025;-74
2023/04/19 06:28:40;;;;;;;35.60;18.40;;;;;;;10.41;100.00;102489.09;5224355;28;20033;-74
2023/04/19 06:31:11;;;;;;;36.90;19.42;;;;;;;10.49;100.00;102494.69;5224287;28;20033;-74
2023/04/19 06:33:41;;;;;;;33.30;18.08;;;;;;;10.55;100.00;102491.50;5224525;28;20409;-74
2023/04/19 06:36:12;;;;;;;36.13;19.48;;;;;;;10.64;100.00;102487.19;5189809;28;20021;-74
2023/04/19 06:38:43;;;;;;;38.40;19.23;;;;;;;10.70;100.00;102491.22;5206432;28;20025;-74
2023/04/19 06:41:14;;;;;;;35.92;18.85;;;;;;;10.79;100.00;102493.13;5223342;28;20080;-74
2023/04/19 06:43:44;;;;;;;34.00;18.60;;;;;;;10.84;100.00;102482.84;5223822;28;20104;-74
2023/04/19 06:46:15;;;;;;;29.63;17.25;;;;;;;10.97;100.00;102474.63;5205805;28;20078;-74
2023/04/19 06:48:45;;;;;;;33.45;18.05;;;;;;;11.08;100.00;102479.94;5223477;28;20115;-74
2023/04/19 06:51:16;;;;;;;41.47;18.60;;;;;;;11.17;100.00;102479.16;5223588;28;20021;-74
2023/04/19 06:53:46;;;;;;;29.27;15.88;;;;;;;11.23;100.00;102478.63;5223778;28;20561;-74
2023/04/19 06:56:16;;;;;;;31.85;18.23;;;;;;;11.37;100.00;102482.84;5223821;28;20049;-74
2023/04/19 06:58:47;;;;;;;33.63;17.17;;;;;;;11.38;100.00;102481.84;5223710;28;20025;-74
2023/04/19 07:01:18;;;;;;;27.92;16.23;;;;;;;11.44;100.00;102480.47;5223288;28;20051;-74
2023/04/19 07:03:48;;;;;;;28.92;15.30;;;;;;;11.42;100.00;102480.59;5223864;28;20131;-74
2023/04/19 07:06:19;;;;;;;26.67;15.13;;;;;;;11.49;100.00;102483.63;5205283;28;20071;-74
2023/04/19 07:08:49;;;;;;;29.77;15.82;;;;;;;11.52;100.00;102481.53;5226666;28;20025;-74
2023/04/19 07:11:20;;;;;;;30.80;15.63;;;;;;;11.59;100.00;102488.06;5227451;28;20035;-74
2023/04/19 07:13:50;;;;;;;27.45;15.23;;;;;;;11.54;100.00;102484.06;5227654;28;20685;-74
2023/04/19 07:16:21;;;;;;;30.30;15.45;;;;;;;11.70;100.00;102486.28;5227562;28;20119;-74
2023/04/19 07:18:52;;;;;;;27.30;14.52;;;;;;;11.85;100.00;102485.84;5227547;28;20025;-74
2023/04/19 07:21:25;;;;;;;26.75;13.98;;;;;;;12.36;100.00;102484.03;5227585;28;20025;-74
2023/04/19 07:23:55;;;;;;;26.25;14.60;;;;;;;13.07;100.00;102479.25;5227689;28;20021;-74
2023/04/19 07:26:26;;;;;;;22.88;13.75;;;;;;;13.79;100.00;102469.75;5227159;28;20047;-74
2023/04/19 07:28:57;;;;;;;17.83;11.70;;;;;;;14.11;100.00;102474.75;5227419;28;20028;-75
2023/04/19 07:31:27;;;;;;;19.75;12.82;;;;;;;14.33;100.00;102480.72;5227406;28;20065;-74
2023/04/19 07:33:58;;;;;;;18.20;11.45;;;;;;;13.99;100.00;102474.06;5227257;28;20029;-74
2023/04/19 07:36:30;;;;;;;20.85;12.20;;;;;;;14.50;100.00;102480.75;5227771;28;20036;-75
2023/04/19 07:39:01;;;;;;;21.13;10.98;;;;;;;14.92;100.00;102473.94;5209588;28;20032;-75
2023/04/19 07:41:31;;;;;;;18.48;12.00;;;;;;;15.04;100.00;102461.88;5215626;28;20084;-74
2023/04/19 07:44:04;;;;;;;15.52;10.70;;;;;;;15.18;100.00;102476.69;5220525;28;20082;-74
2023/04/19 07:46:35;;;;;;;20.08;11.30;;;;;;;15.67;100.00;102467.09;5225175;28;20501;-74
2023/04/19 07:49:06;;;;;;;20.48;11.65;;;;;;;15.70;100.00;102469.44;5225701;28;20032;-74
2023/04/19 07:51:36;;;;;;;17.73;10.48;;;;;;;16.16;100.00;102480.81;5225302;28;20025;-71
2023/04/19 07:54:07;;;;;;;16.23;9.43;;;;;;;16.26;100.00;102478.81;5207550;28;20390;-72
2023/04/19 07:56:37;;;;;;;16.77;9.05;;;;;;;16.35;100.00;102487.00;5227805;28;20029;-72
2023/04/19 07:59:11;;;;;;;14.38;8.35;;;;;;;15.62;100.00;102476.66;5226932;28;20096;-72
2023/04/19 08:01:42;;;;;;;12.15;8.45;;;;;;;16.26;100.00;102477.97;5212463;28;20179;-72
2023/04/19 08:04:12;;;;;;;14.48;8.88;;;;;;;16.26;100.00;102475.28;5225631;28;20123;-75
2023/04/19 08:06:43;;;;;;;14.52;8.55;;;;;;;16.78;100.00;102475.09;5206896;28;20052;-75
2023/04/19 08:09:13;;;;;;;16.00;8.48;;;;;;;17.21;100.00;102473.06;5207355;28;20394;-75
2023/04/19 08:11:44;;;;;;;12.07;9.05;;;;;;;16.89;100.00;102471.22;5224739;28;20024;-75
2023/04/19 08:14:15;;;;;;;12.60;7.55;;;;;;;16.41;100.00;102475.50;5225135;28;20106;-75
2023/04/19 08:16:45;;;;;;;14.57;8.57;;;;;;;16.30;100.00;102463.94;5224702;28;20112;-75
2023/04/19 08:19:16;;;;;;;13.20;7.65;;;;;;;16.62;100.00;102461.47;5223889;28;20615;-75
2023/04/19 08:21:46;;;;;;;13.23;8.05;;;;;;;16.67;100.00;102460.00;5224838;28;20024;-75
2023/04/19 08:24:17;;;;;;;14.15;7.85;;;;;;;16.63;100.00;102466.75;5207055;28;20060;-75
2023/04/19 08:26:52;;;;;;;17.80;7.72;;;;;;;17.23;100.00;102462.91;5224523;28;20027;-73
2023/04/19 08:29:22;;;;;;;;;;;;;;;17.23;100.00;102463.75;5207716;28;20567;-73
2023/04/19 08:31:53;;;;;;;11.82;8.10;;;;;;;17.86;100.00;102462.94;5206088;28;19908;-73
2023/04/19 08:34:23;;;;;;;13.27;6.95;;;;;;;17.26;100.00;102457.97;5207158;28;20020;-73
2023/04/19 08:36:54;;;;;;;11.40;7.53;;;;;;;17.36;100.00;102463.22;5224134;28;20024;-72
2023/04/19 08:39:24;;;;;;;14.00;7.75;;;;;;;17.77;100.00;102455.00;5224630;28;20048;-73
2023/04/19 08:41:56;;;;;;;11.32;7.10;;;;;;;17.61;100.00;102453.16;5205998;28;20021;-73
2023/04/19 08:44:29;;;;;;;13.45;7.60;;;;;;;17.53;100.00;102455.91;5224061;28;20039;-73
2023/04/19 08:47:00;;;;;;;9.80;6.78;;;;;;;17.05;100.00;102460.38;5224068;28;20112;-73
2023/04/19 08:49:35;;;;;;;15.07;7.40;;;;;;;17.23;100.00;102461.03;5206344;28;20029;-73
2023/04/19 08:52:07;;;;;;;13.13;7.15;;;;;;;17.87;100.00;102452.94;5224301;28;20099;-73
2023/04/19 08:54:38;;;;;;;10.57;7.20;;;;;;;18.01;100.00;102454.91;5224156;28;20035;-73
2023/04/19 08:57:09;;;;;;;11.75;7.45;;;;;;;17.45;100.00;102454.06;5223711;28;20111;-72
2023/04/19 08:59:39;;;;;;;10.82;6.93;;;;;;;17.71;100.00;102452.97;5224565;28;20028;-73
2023/04/19 09:02:10;;;;;;;13.10;7.38;;;;;;;17.53;100.00;102455.91;5223784;28;20078;-73
2023/04/19 09:04:40;;;;;;;14.32;7.00;;;;;;;17.78;100.00;102446.72;5224448;28;20021;-72
2023/04/19 09:07:23;;;;;;;12.32;6.68;;;;;;;17.95;100.00;102435.78;5223257;28;20470;-73
2023/04/19 09:10:13;;;;;;;10.48;7.25;;;;;;;17.94;100.00;102448.50;5224140;28;20028;-73
2023/04/19 09:13:03;;;;;;;12.05;7.72;;;;;;;18.16;100.00;102446.03;5223592;28;20033;-73
2023/04/19 09:15:50;;;;;;;11.50;6.50;;;;;;;18.43;100.00;102447.44;5223531;28;20548;-72
2023/04/19 09:18:24;;;;;;;13.18;6.70;;;;;;;18.40;100.00;102442.34;5223633;28;20037;-75
2023/04/19 09:23:45;;;;;;;9.10;6.68;;;;;;;18.26;100.00;102442.06;5223684;28;20028;-75
2023/04/19 09:26:16;;;;;;;12.20;7.13;;;;;;;18.83;100.00;102436.28;5223216;28;20099;-75
2023/04/19 09:28:57;;;;;;;11.27;7.90;;;;;;;19.12;100.00;102431.94;5205206;28;20033;-75
2023/04/19 09:31:28;;;;;;;11.43;7.50;;;;;;;18.85;100.00;102441.53;5222083;28;20063;-73
2023/04/19 09:34:18;;;;;;;12.15;7.68;;;;;;;18.73;100.00;102430.25;5223531;28;20112;-75
2023/04/19 09:36:49;;;;;;;10.32;7.18;;;;;;;19.05;100.00;102433.72;5205579;28;20116;-76
2023/04/19 09:39:31;;;;;;;12.20;7.05;;;;;;;18.59;100.00;102423.69;5223789;28;20147;-76
2023/04/19 09:42:01;;;;;;;18.27;6.78;;;;;;;18.87;100.00;102413.13;5222328;28;20036;-75
2023/04/19 09:44:33;;;;;;;9.65;6.13;;;;;;;18.67;100.00;102424.66;5223525;28;20021;-75
2023/04/19 09:47:24;;;;;;;13.57;7.35;;;;;;;18.07;100.00;102426.22;5222401;28;20060;-75
2023/04/19 09:50:14;;;;;;;15.98;8.02;;;;;;;18.21;100.00;102416.47;5223054;28;20036;-76
2023/04/19 09:52:47;;;;;;;12.82;7.43;;;;;;;18.33;100.00;102415.06;5222849;28;20150;-76
2023/04/19 09:55:18;;;;;;;13.88;7.60;;;;;;;18.33;100.00;102418.59;5223014;28;20025;-75
2023/04/19 09:57:50;;;;;;;13.10;7.20;;;;;;;18.49;100.00;102414.94;5222721;28;20024;-76
2023/04/19 10:00:22;;;;;;;12.70;7.35;;;;;;;18.47;100.00;102402.53;5205122;28;20090;-76
2023/04/19 10:02:56;;;;;;;13.77;7.65;;;;;;;18.88;100.00;102400.41;5222815;28;20029;-76
2023/04/19 10:05:27;;;;;;;11.85;7.03;;;;;;;18.23;100.00;102398.13;5222771;28;20025;-75
2023/04/19 10:08:01;;;;;;;11.38;7.32;;;;;;;17.88;100.00;102402.22;5204395;28;20031;-76
2023/04/19 10:10:31;;;;;;;13.18;7.63;;;;;;;17.74;100.00;102404.66;5222424;28;20601;-75
2023/04/19 10:13:06;;;;;;;12.75;8.15;;;;;;;17.29;100.00;102392.53;5222680;28;20032;-76
2023/04/19 10:15:37;;;;;;;12.35;8.13;;;;;;;17.56;100.00;102402.13;5227150;28;20039;-76
2023/04/19 10:18:14;;;;;;;13.70;7.85;;;;;;;17.79;100.00;102390.56;5223151;28;20024;-75
2023/04/19 10:20:59;;;;;;;9.90;7.00;;;;;;;18.15;100.00;102398.16;5208086;28;20033;-76
2023/04/19 10:23:58;;;;;;;11.75;7.20;;;;;;;17.47;100.00;102394.19;5194312;28;20029;-75
2023/04/19 10:26:28;;;;;;;14.20;7.07;;;;;;;16.84;100.00;102390.41;5205450;28;20066;-76
2023/04/19 10:28:59;;;;;;;12.02;7.80;;;;;;;16.81;100.00;102383.44;5223759;28;20017;-76
2023/04/19 10:31:30;;;;;;;10.32;7.60;;;;;;;17.10;100.00;102376.66;5205661;28;20029;-76
2023/04/19 10:34:01;;;;;;;18.05;7.63;;;;;;;17.22;100.00;102379.84;5222508;28;20024;-76
2023/04/19 10:36:32;;;;;;;15.48;7.78;;;;;;;17.49;100.00;102373.16;5222829;28;20063;-76
2023/04/19 10:39:03;;;;;;;14.45;7.97;;;;;;;17.80;100.00;102374.06;5222336;28;20498;-76
2023/04/19 10:41:56;;;;;;;17.17;8.77;;;;;;;17.95;100.00;102370.63;5221745;28;20036;-75
2023/04/19 10:44:27;;;;;;;14.30;7.85;;;;;;;17.95;100.00;102376.03;5222679;28;20017;-76
2023/04/19 10:46:58;;;;;;;13.57;7.32;;;;;;;17.89;100.00;102369.47;5222143;28;20493;-76
2023/04/19 10:49:30;;;;;;;11.25;7.53;;;;;;;17.84;100.00;102370.00;5221826;28;20033;-75
2023/04/19 10:52:00;;;;;;;12.77;7.10;;;;;;;17.99;100.00;102371.97;5222633;28;20028;-76
2023/04/19 10:54:33;;;;;;;17.02;7.88;;;;;;;17.91;100.00;102366.56;5222445;28;20028;-76
2023/04/19 10:57:06;;;;;;;10.73;7.10;;;;;;;17.93;100.00;102359.09;5222450;28;20071;-75
2023/04/19 10:59:39;;;;;;;13.90;7.32;;;;;;;18.18;100.00;102360.63;5204232;28;20056;-75
2023/04/19 11:02:20;;;;;;;11.00;7.38;;;;;;;17.78;100.00;102351.72;5204680;28;20025;-76
2023/04/19 11:04:51;;;;;;;9.93;6.18;;;;;;;17.75;100.00;102354.75;5222376;28;20033;-75
2023/04/19 11:07:21;;;;;;;15.38;6.55;;;;;;;17.45;100.00;102350.09;5224921;28;20103;-75
2023/04/19 11:09:52;;;;;;;10.43;6.80;;;;;;;17.28;100.00;102347.47;5222851;28;20032;-75
2023/04/19 11:12:22;;;;;;;10.63;6.43;;;;;;;16.88;100.00;102347.56;5222820;28;20032;-76
2023/04/19 11:14:56;;;;;;;10.95;7.25;;;;;;;16.94;100.00;102345.00;5224117;28;20033;-76
2023/04/19 11:17:48;;;;;;;9.93;6.15;;;;;;;17.44;100.00;102332.16;5222874;28;20485;-76
2023/04/19 11:20:22;;;;;;;12.20;6.65;;;;;;;17.94;100.00;102337.19;5223265;28;20501;-73
2023/04/19 11:22:55;;;;;;;11.43;7.43;;;;;;;18.29;100.00;102316.75;5223221;28;20059;-73
2023/04/19 11:25:26;;;;;;;8.15;6.07;;;;;;;18.33;100.00;102333.53;5223221;28;20037;-73
2023/04/19 11:27:59;;;;;;;16.10;7.28;;;;;;;18.18;100.00;102328.06;5222938;28;20025;-73
2023/04/19 11:30:30;;;;;;;13.18;6.30;;;;;;;18.13;100.00;102330.47;5223028;28;20504;-73
2023/04/19 11:33:00;;;;;;;10.80;6.05;;;;;;;17.37;95.20;102329.31;5222917;28;20025;-74